sensor_id;sensor_type;location;lat;lon;timestamp;P1;durP1;ratioP1;P2;durP2;ratioP2
65471;SDS011;52068;50.710;14.492;2022-12-18T00:02:21;5.70;;;4.60;;
65471;SDS011;52068;50.710;14.492;2022-12-18T00:04:47;7.10;;;4.80;;
65471;SDS011;52068;50.710;14.492;2022-12-18T00:07:12;7.28;;;4.75;;
65471;SDS011;52068;50.710;14.492;2022-12-18T00:09:37;6.53;;;4.72;;
65471;SDS011;52068;50.710;14.492;2022-12-18T00:12:03;5.28;;;4.65;;
65471;SDS011;52068;50.710;14.492;2022-12-18T00:14:28;8.18;;;4.90;;
65471;SDS011;52068;50.710;14.492;2022-12-18T00:16:54;5.88;;;4.43;;
65471;SDS011;52068;50.710;14.492;2022-12-18T00:19:19;7.55;;;4.57;;
65471;SDS011;52068;50.710;14.492;2022-12-18T00:21:44;5.45;;;4.80;;
65471;SDS011;52068;50.710;14.492;2022-12-18T00:24:10;8.20;;;4.30;;
65471;SDS011;52068;50.710;14.492;2022-12-18T00:26:36;6.97;;;4.53;;
65471;SDS011;52068;50.710;14.492;2022-12-18T00:29:07;6.40;;;4.30;;
65471;SDS011;52068;50.710;14.492;2022-12-18T00:31:36;6.10;;;4.00;;
65471;SDS011;52068;50.710;14.492;2022-12-18T00:34:02;5.40;;;4.30;;
65471;SDS011;52068;50.710;14.492;2022-12-18T00:36:29;8.18;;;4.70;;
65471;SDS011;52068;50.710;14.492;2022-12-18T00:38:58;5.57;;;4.15;;
65471;SDS011;52068;50.710;14.492;2022-12-18T00:41:25;6.88;;;4.15;;
65471;SDS011;52068;50.710;14.492;2022-12-18T00:44:10;7.13;;;4.45;;
65471;SDS011;52068;50.710;14.492;2022-12-18T00:46:37;4.97;;;3.85;;
65471;SDS011;52068;50.710;14.492;2022-12-18T00:49:03;5.07;;;3.95;;
65471;SDS011;52068;50.710;14.492;2022-12-18T00:51:28;5.50;;;3.90;;
65471;SDS011;52068;50.710;14.492;2022-12-18T00:53:54;6.15;;;4.45;;
65471;SDS011;52068;50.710;14.492;2022-12-18T00:56:19;5.10;;;4.32;;
65471;SDS011;52068;50.710;14.492;2022-12-18T00:58:48;7.88;;;4.28;;
65471;SDS011;52068;50.710;14.492;2022-12-18T01:01:13;7.95;;;4.53;;
65471;SDS011;52068;50.710;14.492;2022-12-18T01:03:39;6.68;;;4.22;;
65471;SDS011;52068;50.710;14.492;2022-12-18T01:06:05;8.38;;;4.57;;
65471;SDS011;52068;50.710;14.492;2022-12-18T01:08:32;6.45;;;4.15;;
65471;SDS011;52068;50.710;14.492;2022-12-18T01:10:58;5.45;;;4.13;;
65471;SDS011;52068;50.710;14.492;2022-12-18T01:13:23;7.07;;;4.43;;
65471;SDS011;52068;50.710;14.492;2022-12-18T01:15:49;6.00;;;4.20;;
65471;SDS011;52068;50.710;14.492;2022-12-18T01:18:15;6.55;;;4.75;;
65471;SDS011;52068;50.710;14.492;2022-12-18T01:20:40;5.97;;;4.15;;
65471;SDS011;52068;50.710;14.492;2022-12-18T01:23:05;8.68;;;5.30;;
65471;SDS011;52068;50.710;14.492;2022-12-18T01:25:31;5.90;;;4.38;;
65471;SDS011;52068;50.710;14.492;2022-12-18T01:27:56;7.18;;;4.45;;
65471;SDS011;52068;50.710;14.492;2022-12-18T01:30:22;6.25;;;4.15;;
65471;SDS011;52068;50.710;14.492;2022-12-18T01:32:47;7.57;;;4.28;;
65471;SDS011;52068;50.710;14.492;2022-12-18T01:35:12;8.13;;;4.00;;
65471;SDS011;52068;50.710;14.492;2022-12-18T01:37:38;4.95;;;3.92;;
65471;SDS011;52068;50.710;14.492;2022-12-18T01:40:03;5.63;;;4.13;;
65471;SDS011;52068;50.710;14.492;2022-12-18T01:42:29;13.30;;;4.03;;
65471;SDS011;52068;50.710;14.492;2022-12-18T01:47:42;5.72;;;3.55;;
65471;SDS011;52068;50.710;14.492;2022-12-18T01:52:48;7.88;;;4.47;;
65471;SDS011;52068;50.710;14.492;2022-12-18T01:55:23;5.15;;;3.97;;
65471;SDS011;52068;50.710;14.492;2022-12-18T01:57:54;5.18;;;3.75;;
65471;SDS011;52068;50.710;14.492;2022-12-18T02:00:21;7.45;;;3.78;;
65471;SDS011;52068;50.710;14.492;2022-12-18T02:02:47;4.60;;;3.53;;
65471;SDS011;52068;50.710;14.492;2022-12-18T02:05:18;5.40;;;3.75;;
65471;SDS011;52068;50.710;14.492;2022-12-18T02:10:27;6.22;;;4.28;;
65471;SDS011;52068;50.710;14.492;2022-12-18T02:13:13;5.15;;;3.67;;
65471;SDS011;52068;50.710;14.492;2022-12-18T02:18:32;5.22;;;3.65;;
65471;SDS011;52068;50.710;14.492;2022-12-18T02:27:05;4.75;;;3.80;;
65471;SDS011;52068;50.710;14.492;2022-12-18T02:29:34;5.22;;;3.75;;
65471;SDS011;52068;50.710;14.492;2022-12-18T02:32:05;5.53;;;4.03;;
65471;SDS011;52068;50.710;14.492;2022-12-18T02:34:34;4.72;;;3.47;;
65471;SDS011;52068;50.710;14.492;2022-12-18T02:37:03;4.35;;;3.28;;
65471;SDS011;52068;50.710;14.492;2022-12-18T02:39:32;4.90;;;3.67;;
65471;SDS011;52068;50.710;14.492;2022-12-18T02:41:59;5.15;;;3.67;;
65471;SDS011;52068;50.710;14.492;2022-12-18T02:44:27;5.55;;;3.83;;
65471;SDS011;52068;50.710;14.492;2022-12-18T02:46:53;5.75;;;3.63;;
65471;SDS011;52068;50.710;14.492;2022-12-18T02:57:30;6.25;;;3.60;;
65471;SDS011;52068;50.710;14.492;2022-12-18T03:00:02;6.15;;;3.78;;
65471;SDS011;52068;50.710;14.492;2022-12-18T03:05:35;4.95;;;3.58;;
65471;SDS011;52068;50.710;14.492;2022-12-18T03:08:10;5.82;;;3.40;;
65471;SDS011;52068;50.710;14.492;2022-12-18T03:10:51;4.50;;;3.65;;
65471;SDS011;52068;50.710;14.492;2022-12-18T03:13:31;3.95;;;3.20;;
65471;SDS011;52068;50.710;14.492;2022-12-18T03:15:59;4.28;;;3.53;;
65471;SDS011;52068;50.710;14.492;2022-12-18T03:18:30;5.57;;;3.63;;
65471;SDS011;52068;50.710;14.492;2022-12-18T03:21:02;4.45;;;3.50;;
65471;SDS011;52068;50.710;14.492;2022-12-18T03:23:32;4.53;;;3.45;;
65471;SDS011;52068;50.710;14.492;2022-12-18T03:26:03;5.80;;;4.00;;
65471;SDS011;52068;50.710;14.492;2022-12-18T03:28:32;5.50;;;4.00;;
65471;SDS011;52068;50.710;14.492;2022-12-18T03:31:03;5.07;;;3.67;;
65471;SDS011;52068;50.710;14.492;2022-12-18T03:33:47;15.70;;;4.20;;
65471;SDS011;52068;50.710;14.492;2022-12-18T03:36:17;6.07;;;4.38;;
65471;SDS011;52068;50.710;14.492;2022-12-18T03:38:43;6.18;;;3.80;;
65471;SDS011;52068;50.710;14.492;2022-12-18T03:44:04;5.45;;;3.90;;
65471;SDS011;52068;50.710;14.492;2022-12-18T03:49:23;5.70;;;3.38;;
65471;SDS011;52068;50.710;14.492;2022-12-18T03:52:01;4.13;;;3.40;;
65471;SDS011;52068;50.710;14.492;2022-12-18T03:54:31;3.78;;;3.38;;
65471;SDS011;52068;50.710;14.492;2022-12-18T03:57:06;7.15;;;3.47;;
65471;SDS011;52068;50.710;14.492;2022-12-18T03:59:36;4.80;;;3.47;;
65471;SDS011;52068;50.710;14.492;2022-12-18T04:02:04;5.03;;;3.25;;
65471;SDS011;52068;50.710;14.492;2022-12-18T04:04:31;5.32;;;3.42;;
65471;SDS011;52068;50.710;14.492;2022-12-18T04:06:59;4.30;;;3.42;;
65471;SDS011;52068;50.710;14.492;2022-12-18T04:09:25;4.75;;;3.42;;
65471;SDS011;52068;50.710;14.492;2022-12-18T04:11:51;4.78;;;3.30;;
65471;SDS011;52068;50.710;14.492;2022-12-18T04:14:17;3.88;;;3.33;;
65471;SDS011;52068;50.710;14.492;2022-12-18T04:16:42;8.95;;;3.63;;
65471;SDS011;52068;50.710;14.492;2022-12-18T04:19:08;4.88;;;3.58;;
65471;SDS011;52068;50.710;14.492;2022-12-18T04:21:33;3.88;;;3.47;;
65471;SDS011;52068;50.710;14.492;2022-12-18T04:23:58;5.45;;;3.70;;
65471;SDS011;52068;50.710;14.492;2022-12-18T04:26:24;5.25;;;3.80;;
65471;SDS011;52068;50.710;14.492;2022-12-18T04:28:49;4.78;;;3.78;;
65471;SDS011;52068;50.710;14.492;2022-12-18T04:31:14;4.43;;;3.25;;
65471;SDS011;52068;50.710;14.492;2022-12-18T04:33:40;5.25;;;3.70;;
65471;SDS011;52068;50.710;14.492;2022-12-18T04:36:05;6.43;;;3.63;;
65471;SDS011;52068;50.710;14.492;2022-12-18T04:38:31;5.68;;;3.60;;
65471;SDS011;52068;50.710;14.492;2022-12-18T04:40:57;5.30;;;3.47;;
65471;SDS011;52068;50.710;14.492;2022-12-18T04:43:22;5.00;;;3.60;;
65471;SDS011;52068;50.710;14.492;2022-12-18T04:45:48;5.55;;;3.80;;
65471;SDS011;52068;50.710;14.492;2022-12-18T04:48:13;4.68;;;3.83;;
65471;SDS011;52068;50.710;14.492;2022-12-18T04:50:39;4.72;;;3.33;;
65471;SDS011;52068;50.710;14.492;2022-12-18T04:53:04;7.43;;;3.47;;
65471;SDS011;52068;50.710;14.492;2022-12-18T04:55:29;4.65;;;3.50;;
65471;SDS011;52068;50.710;14.492;2022-12-18T04:57:55;3.65;;;2.97;;
65471;SDS011;52068;50.710;14.492;2022-12-18T05:00:20;3.72;;;2.97;;
65471;SDS011;52068;50.710;14.492;2022-12-18T05:02:47;5.03;;;3.63;;
65471;SDS011;52068;50.710;14.492;2022-12-18T05:05:12;3.47;;;3.17;;
65471;SDS011;52068;50.710;14.492;2022-12-18T05:07:38;5.63;;;3.92;;
65471;SDS011;52068;50.710;14.492;2022-12-18T05:10:03;11.25;;;6.95;;
65471;SDS011;52068;50.710;14.492;2022-12-18T05:12:32;8.80;;;5.57;;
65471;SDS011;52068;50.710;14.492;2022-12-18T05:14:57;7.40;;;4.65;;
65471;SDS011;52068;50.710;14.492;2022-12-18T05:17:23;6.65;;;5.00;;
65471;SDS011;52068;50.710;14.492;2022-12-18T05:19:48;7.93;;;4.65;;
65471;SDS011;52068;50.710;14.492;2022-12-18T05:22:13;9.82;;;4.97;;
65471;SDS011;52068;50.710;14.492;2022-12-18T05:24:39;10.32;;;4.40;;
65471;SDS011;52068;50.710;14.492;2022-12-18T05:27:04;5.07;;;3.85;;
65471;SDS011;52068;50.710;14.492;2022-12-18T05:29:30;17.63;;;3.88;;
65471;SDS011;52068;50.710;14.492;2022-12-18T05:31:55;6.38;;;3.95;;
65471;SDS011;52068;50.710;14.492;2022-12-18T05:34:20;6.57;;;4.22;;
65471;SDS011;52068;50.710;14.492;2022-12-18T05:36:46;4.13;;;3.70;;
65471;SDS011;52068;50.710;14.492;2022-12-18T05:39:11;5.32;;;3.75;;
65471;SDS011;52068;50.710;14.492;2022-12-18T05:41:37;5.32;;;4.13;;
65471;SDS011;52068;50.710;14.492;2022-12-18T05:44:02;9.52;;;3.88;;
65471;SDS011;52068;50.710;14.492;2022-12-18T05:46:27;5.00;;;3.70;;
65471;SDS011;52068;50.710;14.492;2022-12-18T05:48:54;4.95;;;3.90;;
65471;SDS011;52068;50.710;14.492;2022-12-18T05:51:20;6.68;;;3.97;;
65471;SDS011;52068;50.710;14.492;2022-12-18T05:53:47;11.02;;;4.13;;
65471;SDS011;52068;50.710;14.492;2022-12-18T05:56:17;7.78;;;4.05;;
65471;SDS011;52068;50.710;14.492;2022-12-18T05:58:44;6.38;;;3.83;;
65471;SDS011;52068;50.710;14.492;2022-12-18T06:01:21;5.68;;;3.95;;
65471;SDS011;52068;50.710;14.492;2022-12-18T06:03:49;9.02;;;4.57;;
65471;SDS011;52068;50.710;14.492;2022-12-18T06:06:16;12.13;;;4.45;;
65471;SDS011;52068;50.710;14.492;2022-12-18T06:08:46;7.40;;;4.07;;
65471;SDS011;52068;50.710;14.492;2022-12-18T06:11:11;6.10;;;3.70;;
65471;SDS011;52068;50.710;14.492;2022-12-18T06:13:38;9.25;;;4.35;;
65471;SDS011;52068;50.710;14.492;2022-12-18T06:16:06;12.10;;;3.75;;
65471;SDS011;52068;50.710;14.492;2022-12-18T06:18:33;6.07;;;3.88;;
65471;SDS011;52068;50.710;14.492;2022-12-18T06:20:59;7.82;;;3.83;;
65471;SDS011;52068;50.710;14.492;2022-12-18T06:23:25;5.15;;;3.55;;
65471;SDS011;52068;50.710;14.492;2022-12-18T06:25:51;8.98;;;3.92;;
65471;SDS011;52068;50.710;14.492;2022-12-18T06:28:17;7.85;;;4.32;;
65471;SDS011;52068;50.710;14.492;2022-12-18T06:30:44;18.40;;;4.53;;
65471;SDS011;52068;50.710;14.492;2022-12-18T06:33:10;9.57;;;4.10;;
65471;SDS011;52068;50.710;14.492;2022-12-18T06:35:35;4.35;;;3.65;;
65471;SDS011;52068;50.710;14.492;2022-12-18T06:38:01;6.30;;;3.42;;
65471;SDS011;52068;50.710;14.492;2022-12-18T06:40:27;7.30;;;3.78;;
65471;SDS011;52068;50.710;14.492;2022-12-18T06:42:52;8.73;;;5.22;;
65471;SDS011;52068;50.710;14.492;2022-12-18T06:45:18;8.18;;;3.90;;
65471;SDS011;52068;50.710;14.492;2022-12-18T06:47:43;7.50;;;3.60;;
65471;SDS011;52068;50.710;14.492;2022-12-18T06:50:09;4.97;;;3.85;;
65471;SDS011;52068;50.710;14.492;2022-12-18T06:52:34;7.88;;;3.92;;
65471;SDS011;52068;50.710;14.492;2022-12-18T06:55:00;4.03;;;3.63;;
65471;SDS011;52068;50.710;14.492;2022-12-18T06:57:25;7.47;;;4.10;;
65471;SDS011;52068;50.710;14.492;2022-12-18T06:59:51;7.85;;;3.97;;
65471;SDS011;52068;50.710;14.492;2022-12-18T07:02:16;5.78;;;3.70;;
65471;SDS011;52068;50.710;14.492;2022-12-18T07:04:42;4.63;;;3.53;;
65471;SDS011;52068;50.710;14.492;2022-12-18T07:07:07;4.95;;;3.42;;
65471;SDS011;52068;50.710;14.492;2022-12-18T07:09:33;4.63;;;3.55;;
65471;SDS011;52068;50.710;14.492;2022-12-18T07:11:58;8.20;;;3.63;;
65471;SDS011;52068;50.710;14.492;2022-12-18T07:14:23;9.48;;;3.90;;
65471;SDS011;52068;50.710;14.492;2022-12-18T07:16:49;11.65;;;3.28;;
65471;SDS011;52068;50.710;14.492;2022-12-18T07:19:14;9.32;;;3.60;;
65471;SDS011;52068;50.710;14.492;2022-12-18T07:21:39;4.53;;;3.20;;
65471;SDS011;52068;50.710;14.492;2022-12-18T07:24:05;6.05;;;3.38;;
65471;SDS011;52068;50.710;14.492;2022-12-18T07:26:31;8.77;;;4.32;;
65471;SDS011;52068;50.710;14.492;2022-12-18T07:28:56;6.20;;;4.95;;
65471;SDS011;52068;50.710;14.492;2022-12-18T07:31:22;5.85;;;4.72;;
65471;SDS011;52068;50.710;14.492;2022-12-18T07:33:49;11.38;;;5.32;;
65471;SDS011;52068;50.710;14.492;2022-12-18T07:36:15;9.25;;;6.80;;
65471;SDS011;52068;50.710;14.492;2022-12-18T07:38:40;6.88;;;5.13;;
65471;SDS011;52068;50.710;14.492;2022-12-18T07:41:10;8.32;;;4.50;;
65471;SDS011;52068;50.710;14.492;2022-12-18T07:43:37;10.43;;;4.88;;
65471;SDS011;52068;50.710;14.492;2022-12-18T07:46:04;7.85;;;4.80;;
65471;SDS011;52068;50.710;14.492;2022-12-18T07:48:30;7.00;;;4.57;;
65471;SDS011;52068;50.710;14.492;2022-12-18T07:51:02;7.97;;;4.88;;
65471;SDS011;52068;50.710;14.492;2022-12-18T07:53:29;8.18;;;5.35;;
65471;SDS011;52068;50.710;14.492;2022-12-18T07:55:56;6.63;;;5.15;;
65471;SDS011;52068;50.710;14.492;2022-12-18T07:58:25;6.60;;;5.20;;
65471;SDS011;52068;50.710;14.492;2022-12-18T08:00:51;7.72;;;5.20;;
65471;SDS011;52068;50.710;14.492;2022-12-18T08:03:17;6.40;;;5.18;;
65471;SDS011;52068;50.710;14.492;2022-12-18T08:05:43;9.98;;;5.35;;
65471;SDS011;52068;50.710;14.492;2022-12-18T08:08:08;7.95;;;5.00;;
65471;SDS011;52068;50.710;14.492;2022-12-18T08:10:34;6.07;;;4.95;;
65471;SDS011;52068;50.710;14.492;2022-12-18T08:12:59;5.63;;;4.65;;
65471;SDS011;52068;50.710;14.492;2022-12-18T08:15:24;7.22;;;5.20;;
65471;SDS011;52068;50.710;14.492;2022-12-18T08:17:50;5.75;;;4.90;;
65471;SDS011;52068;50.710;14.492;2022-12-18T08:20:15;7.07;;;4.95;;
65471;SDS011;52068;50.710;14.492;2022-12-18T08:22:42;9.20;;;5.25;;
65471;SDS011;52068;50.710;14.492;2022-12-18T08:25:07;8.07;;;5.03;;
65471;SDS011;52068;50.710;14.492;2022-12-18T08:27:33;8.95;;;4.80;;
65471;SDS011;52068;50.710;14.492;2022-12-18T08:29:58;6.53;;;4.90;;
65471;SDS011;52068;50.710;14.492;2022-12-18T08:32:24;6.53;;;5.47;;
65471;SDS011;52068;50.710;14.492;2022-12-18T08:34:51;7.15;;;5.50;;
65471;SDS011;52068;50.710;14.492;2022-12-18T08:37:17;8.50;;;5.10;;
65471;SDS011;52068;50.710;14.492;2022-12-18T08:39:42;9.27;;;5.40;;
65471;SDS011;52068;50.710;14.492;2022-12-18T08:42:08;6.85;;;5.20;;
65471;SDS011;52068;50.710;14.492;2022-12-18T08:44:52;6.90;;;5.47;;
65471;SDS011;52068;50.710;14.492;2022-12-18T08:47:17;6.30;;;5.13;;
65471;SDS011;52068;50.710;14.492;2022-12-18T08:49:42;5.97;;;4.93;;
65471;SDS011;52068;50.710;14.492;2022-12-18T08:52:08;10.13;;;5.57;;
65471;SDS011;52068;50.710;14.492;2022-12-18T08:54:33;5.85;;;4.45;;
65471;SDS011;52068;50.710;14.492;2022-12-18T08:56:59;6.25;;;4.80;;
65471;SDS011;52068;50.710;14.492;2022-12-18T08:59:27;6.63;;;5.10;;
65471;SDS011;52068;50.710;14.492;2022-12-18T09:01:53;9.25;;;4.63;;
65471;SDS011;52068;50.710;14.492;2022-12-18T09:04:19;5.90;;;4.53;;
65471;SDS011;52068;50.710;14.492;2022-12-18T09:06:44;7.43;;;4.93;;
65471;SDS011;52068;50.710;14.492;2022-12-18T09:09:10;7.75;;;4.53;;
65471;SDS011;52068;50.710;14.492;2022-12-18T09:11:36;5.53;;;4.22;;
65471;SDS011;52068;50.710;14.492;2022-12-18T09:14:02;6.35;;;4.90;;
65471;SDS011;52068;50.710;14.492;2022-12-18T09:16:28;5.43;;;4.13;;
65471;SDS011;52068;50.710;14.492;2022-12-18T09:18:54;5.68;;;4.50;;
65471;SDS011;52068;50.710;14.492;2022-12-18T09:21:24;4.88;;;4.40;;
65471;SDS011;52068;50.710;14.492;2022-12-18T09:23:52;5.70;;;4.82;;
65471;SDS011;52068;50.710;14.492;2022-12-18T09:26:18;6.90;;;5.10;;
65471;SDS011;52068;50.710;14.492;2022-12-18T09:28:45;5.30;;;4.65;;
65471;SDS011;52068;50.710;14.492;2022-12-18T09:31:11;10.23;;;5.72;;
65471;SDS011;52068;50.710;14.492;2022-12-18T09:33:40;6.18;;;4.97;;
65471;SDS011;52068;50.710;14.492;2022-12-18T09:36:06;9.60;;;5.13;;
65471;SDS011;52068;50.710;14.492;2022-12-18T09:38:34;11.63;;;5.63;;
65471;SDS011;52068;50.710;14.492;2022-12-18T09:41:03;7.05;;;4.97;;
65471;SDS011;52068;50.710;14.492;2022-12-18T09:43:43;5.97;;;4.72;;
65471;SDS011;52068;50.710;14.492;2022-12-18T09:46:15;6.47;;;4.35;;
65471;SDS011;52068;50.710;14.492;2022-12-18T09:48:46;5.95;;;4.57;;
65471;SDS011;52068;50.710;14.492;2022-12-18T09:51:18;5.13;;;4.30;;
65471;SDS011;52068;50.710;14.492;2022-12-18T09:54:02;4.97;;;4.47;;
65471;SDS011;52068;50.710;14.492;2022-12-18T09:56:31;6.25;;;4.57;;
65471;SDS011;52068;50.710;14.492;2022-12-18T09:59:03;7.05;;;4.75;;
65471;SDS011;52068;50.710;14.492;2022-12-18T10:01:29;6.18;;;4.50;;
65471;SDS011;52068;50.710;14.492;2022-12-18T10:03:57;5.85;;;4.50;;
65471;SDS011;52068;50.710;14.492;2022-12-18T10:06:26;8.07;;;4.57;;
65471;SDS011;52068;50.710;14.492;2022-12-18T10:14:55;6.22;;;4.15;;
65471;SDS011;52068;50.710;14.492;2022-12-18T10:27:47;8.40;;;5.00;;
65471;SDS011;52068;50.710;14.492;2022-12-18T10:30:17;4.82;;;4.15;;
65471;SDS011;52068;50.710;14.492;2022-12-18T10:32:44;5.88;;;4.60;;
65471;SDS011;52068;50.710;14.492;2022-12-18T10:35:25;5.72;;;4.40;;
65471;SDS011;52068;50.710;14.492;2022-12-18T10:40:48;5.68;;;4.68;;
65471;SDS011;52068;50.710;14.492;2022-12-18T10:43:15;8.35;;;4.78;;
65471;SDS011;52068;50.710;14.492;2022-12-18T10:45:41;6.88;;;5.05;;
65471;SDS011;52068;50.710;14.492;2022-12-18T10:48:19;8.48;;;4.88;;
65471;SDS011;52068;50.710;14.492;2022-12-18T10:50:47;6.53;;;4.72;;
65471;SDS011;52068;50.710;14.492;2022-12-18T10:53:18;7.38;;;4.50;;
65471;SDS011;52068;50.710;14.492;2022-12-18T10:55:46;5.97;;;4.35;;
65471;SDS011;52068;50.710;14.492;2022-12-18T10:58:28;6.43;;;4.80;;
65471;SDS011;52068;50.710;14.492;2022-12-18T11:08:35;6.28;;;5.05;;
65471;SDS011;52068;50.710;14.492;2022-12-18T11:11:01;7.07;;;5.05;;
65471;SDS011;52068;50.710;14.492;2022-12-18T11:13:28;7.65;;;5.20;;
65471;SDS011;52068;50.710;14.492;2022-12-18T11:15:55;5.88;;;4.57;;
65471;SDS011;52068;50.710;14.492;2022-12-18T11:18:32;6.90;;;5.25;;
65471;SDS011;52068;50.710;14.492;2022-12-18T11:21:00;7.65;;;4.78;;
65471;SDS011;52068;50.710;14.492;2022-12-18T11:25:59;7.07;;;4.93;;
65471;SDS011;52068;50.710;14.492;2022-12-18T11:33:37;7.80;;;5.22;;
65471;SDS011;52068;50.710;14.492;2022-12-18T11:36:07;9.00;;;4.85;;
65471;SDS011;52068;50.710;14.492;2022-12-18T11:38:36;9.73;;;5.18;;
65471;SDS011;52068;50.710;14.492;2022-12-18T11:41:05;6.25;;;4.63;;
65471;SDS011;52068;50.710;14.492;2022-12-18T11:43:47;6.82;;;4.68;;
65471;SDS011;52068;50.710;14.492;2022-12-18T11:46:15;5.50;;;4.75;;
65471;SDS011;52068;50.710;14.492;2022-12-18T11:48:58;8.27;;;4.80;;
65471;SDS011;52068;50.710;14.492;2022-12-18T11:51:45;6.13;;;4.87;;
65471;SDS011;52068;50.710;14.492;2022-12-18T11:54:18;6.55;;;4.82;;
65471;SDS011;52068;50.710;14.492;2022-12-18T11:56:55;7.20;;;4.85;;
65471;SDS011;52068;50.710;14.492;2022-12-18T12:07:35;6.80;;;4.88;;
65471;SDS011;52068;50.710;14.492;2022-12-18T12:10:17;14.32;;;5.40;;
65471;SDS011;52068;50.710;14.492;2022-12-18T12:21:23;5.90;;;4.53;;
65471;SDS011;52068;50.710;14.492;2022-12-18T12:23:58;10.10;;;5.43;;
65471;SDS011;52068;50.710;14.492;2022-12-18T12:26:40;7.25;;;5.00;;
65471;SDS011;52068;50.710;14.492;2022-12-18T12:37:44;6.90;;;5.13;;
65471;SDS011;52068;50.710;14.492;2022-12-18T12:40:12;6.00;;;4.32;;
65471;SDS011;52068;50.710;14.492;2022-12-18T12:45:42;5.80;;;4.78;;
65471;SDS011;52068;50.710;14.492;2022-12-18T12:50:58;5.88;;;4.63;;
65471;SDS011;52068;50.710;14.492;2022-12-18T12:53:28;8.20;;;4.75;;
65471;SDS011;52068;50.710;14.492;2022-12-18T12:55:58;7.85;;;5.00;;
65471;SDS011;52068;50.710;14.492;2022-12-18T12:58:33;8.25;;;5.18;;
65471;SDS011;52068;50.710;14.492;2022-12-18T13:03:57;12.38;;;4.80;;
65471;SDS011;52068;50.710;14.492;2022-12-18T13:06:35;7.00;;;4.93;;
65471;SDS011;52068;50.710;14.492;2022-12-18T13:09:04;7.28;;;4.97;;
65471;SDS011;52068;50.710;14.492;2022-12-18T13:11:31;7.35;;;5.40;;
65471;SDS011;52068;50.710;14.492;2022-12-18T13:14:23;7.85;;;5.13;;
65471;SDS011;52068;50.710;14.492;2022-12-18T13:19:43;7.55;;;5.70;;
65471;SDS011;52068;50.710;14.492;2022-12-18T13:22:22;10.60;;;5.30;;
65471;SDS011;52068;50.710;14.492;2022-12-18T13:24:50;6.35;;;5.63;;
65471;SDS011;52068;50.710;14.492;2022-12-18T13:36:23;7.45;;;5.13;;
65471;SDS011;52068;50.710;14.492;2022-12-18T13:38:37;7.93;;;5.43;;
65471;SDS011;52068;50.710;14.492;2022-12-18T13:41:20;9.52;;;5.93;;
65471;SDS011;52068;50.710;14.492;2022-12-18T13:43:49;10.10;;;5.65;;
65471;SDS011;52068;50.710;14.492;2022-12-18T13:46:23;8.35;;;5.45;;
65471;SDS011;52068;50.710;14.492;2022-12-18T13:48:56;16.48;;;5.78;;
65471;SDS011;52068;50.710;14.492;2022-12-18T13:51:22;8.45;;;6.00;;
65471;SDS011;52068;50.710;14.492;2022-12-18T13:53:57;10.95;;;6.10;;
65471;SDS011;52068;50.710;14.492;2022-12-18T13:56:26;7.72;;;5.22;;
65471;SDS011;52068;50.710;14.492;2022-12-18T14:02:07;9.82;;;5.72;;
65471;SDS011;52068;50.710;14.492;2022-12-18T14:04:44;8.50;;;5.85;;
65471;SDS011;52068;50.710;14.492;2022-12-18T14:07:11;7.25;;;5.57;;
65471;SDS011;52068;50.710;14.492;2022-12-18T14:09:40;7.60;;;5.78;;
65471;SDS011;52068;50.710;14.492;2022-12-18T14:12:15;8.48;;;5.65;;
65471;SDS011;52068;50.710;14.492;2022-12-18T14:17:58;7.97;;;5.68;;
65471;SDS011;52068;50.710;14.492;2022-12-18T14:20:27;7.18;;;5.68;;
65471;SDS011;52068;50.710;14.492;2022-12-18T14:22:54;6.97;;;5.10;;
65471;SDS011;52068;50.710;14.492;2022-12-18T14:25:24;9.50;;;5.43;;
65471;SDS011;52068;50.710;14.492;2022-12-18T14:27:53;8.45;;;6.18;;
65471;SDS011;52068;50.710;14.492;2022-12-18T14:30:29;8.82;;;5.93;;
65471;SDS011;52068;50.710;14.492;2022-12-18T14:33:00;8.40;;;6.40;;
65471;SDS011;52068;50.710;14.492;2022-12-18T14:35:31;7.40;;;5.22;;
65471;SDS011;52068;50.710;14.492;2022-12-18T14:40:36;7.93;;;5.70;;
65471;SDS011;52068;50.710;14.492;2022-12-18T14:43:01;8.23;;;5.88;;
65471;SDS011;52068;50.710;14.492;2022-12-18T14:45:36;11.98;;;5.72;;
65471;SDS011;52068;50.710;14.492;2022-12-18T14:48:07;7.68;;;5.95;;
65471;SDS011;52068;50.710;14.492;2022-12-18T14:50:34;8.32;;;5.80;;
65471;SDS011;52068;50.710;14.492;2022-12-18T14:53:00;8.55;;;5.95;;
65471;SDS011;52068;50.710;14.492;2022-12-18T14:55:25;8.05;;;5.75;;
65471;SDS011;52068;50.710;14.492;2022-12-18T14:57:54;8.07;;;6.03;;
65471;SDS011;52068;50.710;14.492;2022-12-18T15:00:22;9.73;;;6.32;;
65471;SDS011;52068;50.710;14.492;2022-12-18T15:02:52;9.40;;;5.43;;
65471;SDS011;52068;50.710;14.492;2022-12-18T15:05:21;11.85;;;6.03;;
65471;SDS011;52068;50.710;14.492;2022-12-18T15:07:54;8.07;;;6.10;;
65471;SDS011;52068;50.710;14.492;2022-12-18T15:10:22;9.82;;;6.25;;
65471;SDS011;52068;50.710;14.492;2022-12-18T15:12:48;9.10;;;5.80;;
65471;SDS011;52068;50.710;14.492;2022-12-18T15:15:43;9.07;;;5.82;;
65471;SDS011;52068;50.710;14.492;2022-12-18T15:20:42;12.57;;;6.38;;
65471;SDS011;52068;50.710;14.492;2022-12-18T15:25:54;7.68;;;5.60;;
65471;SDS011;52068;50.710;14.492;2022-12-18T15:31:34;9.02;;;6.78;;
65471;SDS011;52068;50.710;14.492;2022-12-18T15:34:10;9.30;;;6.20;;
65471;SDS011;52068;50.710;14.492;2022-12-18T15:36:38;8.20;;;6.07;;
65471;SDS011;52068;50.710;14.492;2022-12-18T15:39:04;8.15;;;6.13;;
65471;SDS011;52068;50.710;14.492;2022-12-18T15:41:31;7.90;;;6.32;;
65471;SDS011;52068;50.710;14.492;2022-12-18T15:43:58;7.55;;;5.65;;
65471;SDS011;52068;50.710;14.492;2022-12-18T15:46:24;8.23;;;5.93;;
65471;SDS011;52068;50.710;14.492;2022-12-18T15:48:54;11.98;;;6.30;;
65471;SDS011;52068;50.710;14.492;2022-12-18T15:51:22;11.27;;;6.80;;
65471;SDS011;52068;50.710;14.492;2022-12-18T15:53:53;9.52;;;6.57;;
65471;SDS011;52068;50.710;14.492;2022-12-18T15:56:20;11.00;;;6.85;;
65471;SDS011;52068;50.710;14.492;2022-12-18T15:59:07;9.57;;;7.13;;
65471;SDS011;52068;50.710;14.492;2022-12-18T16:01:37;10.65;;;6.68;;
65471;SDS011;52068;50.710;14.492;2022-12-18T16:04:03;13.73;;;7.75;;
65471;SDS011;52068;50.710;14.492;2022-12-18T16:06:29;11.73;;;7.65;;
65471;SDS011;52068;50.710;14.492;2022-12-18T16:08:54;10.55;;;7.40;;
65471;SDS011;52068;50.710;14.492;2022-12-18T16:14:02;11.50;;;7.68;;
65471;SDS011;52068;50.710;14.492;2022-12-18T16:16:49;12.20;;;7.95;;
65471;SDS011;52068;50.710;14.492;2022-12-18T16:19:17;12.70;;;8.48;;
65471;SDS011;52068;50.710;14.492;2022-12-18T16:21:43;11.93;;;8.20;;
65471;SDS011;52068;50.710;14.492;2022-12-18T16:24:15;12.95;;;8.05;;
65471;SDS011;52068;50.710;14.492;2022-12-18T16:26:42;9.93;;;7.30;;
65471;SDS011;52068;50.710;14.492;2022-12-18T16:29:08;12.88;;;7.90;;
65471;SDS011;52068;50.710;14.492;2022-12-18T16:31:34;11.80;;;7.80;;
65471;SDS011;52068;50.710;14.492;2022-12-18T16:36:59;11.70;;;7.28;;
65471;SDS011;52068;50.710;14.492;2022-12-18T16:39:26;14.25;;;7.88;;
65471;SDS011;52068;50.710;14.492;2022-12-18T16:41:52;10.70;;;7.72;;
65471;SDS011;52068;50.710;14.492;2022-12-18T16:44:18;10.60;;;7.47;;
65471;SDS011;52068;50.710;14.492;2022-12-18T16:46:44;11.25;;;8.02;;
65471;SDS011;52068;50.710;14.492;2022-12-18T16:49:12;12.38;;;7.95;;
65471;SDS011;52068;50.710;14.492;2022-12-18T16:51:38;12.52;;;7.88;;
65471;SDS011;52068;50.710;14.492;2022-12-18T16:54:04;12.15;;;7.90;;
65471;SDS011;52068;50.710;14.492;2022-12-18T16:56:30;11.77;;;7.97;;
65471;SDS011;52068;50.710;14.492;2022-12-18T16:58:58;9.95;;;7.43;;